Time;durP1;ratioP1;P1;durP2;ratioP2;P2;SDS_P1;SDS_P2;PMS_P1;PMS_P2;Temp;Humidity;BMP_temperature;BMP_pressure;BME280_temperature;BME280_humidity;BME280_pressure;Samples;Min_cycle;Max_cycle;Signal;HPM_P1;HPM_P2
2023/07/09 00:01:53;;;;;;;0.40;0.40;;;23.30;68.80;;;;;;5031030;28;20045;-79
2023/07/09 00:04:19;;;;;;;0.40;0.40;;;23.30;68.70;;;;;;5031163;28;20053;-79
2023/07/09 00:06:45;;;;;;;0.30;0.30;;;23.30;68.70;;;;;;5047852;28;20140;-79
2023/07/09 00:09:14;;;;;;;0.50;0.50;;;23.30;68.60;;;;;;5023458;28;20033;-79
2023/07/09 00:11:41;;;;;;;0.40;0.40;;;23.30;68.70;;;;;;5017932;28;20468;-79
2023/07/09 00:14:08;;;;;;;0.47;0.40;;;23.30;68.70;;;;;;5030610;28;20061;-79
2023/07/09 00:16:34;;;;;;;0.40;0.40;;;23.30;68.60;;;;;;5033589;28;20106;-79
2023/07/09 00:18:59;;;;;;;0.60;0.60;;;23.30;68.60;;;;;;5060098;28;20045;-79
2023/07/09 00:21:25;;;;;;;0.40;0.40;;;23.30;68.60;;;;;;5052997;28;20562;-79
2023/07/09 00:23:50;;;;;;;0.93;0.60;;;23.30;68.70;;;;;;5051054;28;20532;-79
2023/07/09 00:26:16;;;;;;;0.32;0.32;;;23.30;69.40;;;;;;5050064;28;20041;-79
2023/07/09 00:28:42;;;;;;;0.30;0.30;;;23.30;69.40;;;;;;5027448;28;20046;-79
2023/07/09 00:31:13;;;;;;;0.40;0.40;;;23.30;68.60;;;;;;5053173;28;20047;-79
2023/07/09 00:33:38;;;;;;;0.40;0.40;;;23.30;68.60;;;;;;5060125;28;20051;-79
2023/07/09 00:36:10;;;;;;;0.40;0.40;;;23.30;68.60;;;;;;5048529;28;20499;-79
2023/07/09 00:38:38;;;;;;;0.70;0.50;;;23.30;68.60;;;;;;5047692;28;20038;-79
2023/07/09 00:41:05;;;;;;;0.30;0.30;;;23.20;68.50;;;;;;5049902;28;20030;-79
2023/07/09 00:43:35;;;;;;;0.40;0.40;;;23.30;68.60;;;;;;5062855;28;20049;-79
2023/07/09 00:46:30;;;;;;;0.50;0.50;;;23.30;68.60;;;;;;5063382;28;20074;-79
2023/07/09 00:48:58;;;;;;;0.52;0.52;;;23.30;68.60;;;;;;5028686;28;20040;-79
2023/07/09 00:51:24;;;;;;;0.57;0.57;;;23.30;68.60;;;;;;5033813;28;20053;-79
2023/07/09 00:53:52;;;;;;;0.47;0.47;;;23.20;68.60;;;;;;5038184;28;20110;-79
2023/07/09 00:56:27;;;;;;;0.40;0.40;;;23.20;68.50;;;;;;5048719;28;20042;-79
2023/07/09 00:58:53;;;;;;;0.30;0.30;;;23.30;68.60;;;;;;5029240;28;20049;-79
2023/07/09 01:01:19;;;;;;;0.60;0.60;;;23.20;68.50;;;;;;5060959;28;20037;-79
2023/07/09 01:03:45;;;;;;;0.50;0.50;;;23.30;68.60;;;;;;5032237;28;20498;-79
2023/07/09 01:06:12;;;;;;;0.52;0.52;;;23.30;68.60;;;;;;5048240;28;20087;-79
2023/07/09 01:08:41;;;;;;;0.40;0.40;;;23.20;68.50;;;;;;5035428;28;20670;-79
2023/07/09 01:11:15;;;;;;;0.40;0.40;;;23.30;68.60;;;;;;5031048;28;20128;-79
2023/07/09 01:13:44;;;;;;;0.52;0.50;;;23.30;68.50;;;;;;5040864;28;20107;-79
2023/07/09 01:16:10;;;;;;;0.47;0.47;;;23.30;68.60;;;;;;5032087;28;20048;-79
2023/07/09 01:18:36;;;;;;;0.38;0.38;;;23.30;68.60;;;;;;5034870;28;20112;-79
2023/07/09 01:21:03;;;;;;;0.40;0.40;;;23.30;68.60;;;;;;5037172;28;20036;-79
2023/07/09 01:23:29;;;;;;;0.50;0.50;;;23.30;68.60;;;;;;5047766;28;20048;-79
2023/07/09 01:25:55;;;;;;;0.43;0.43;;;23.20;68.50;;;;;;5069850;28;20509;-79
2023/07/09 01:28:21;;;;;;;0.30;0.30;;;23.20;68.50;;;;;;5052085;28;20041;-79
2023/07/09 01:30:53;;;;;;;0.40;0.40;;;23.20;68.50;;;;;;5047670;28;20530;-79
2023/07/09 01:33:18;;;;;;;0.30;0.30;;;23.20;68.50;;;;;;5027228;28;20514;-79
2023/07/09 01:35:44;;;;;;;0.40;0.40;;;23.30;68.60;;;;;;5036006;28;20040;-79
2023/07/09 01:38:09;;;;;;;0.40;0.40;;;23.20;69.30;;;;;;5028376;28;20493;-79
2023/07/09 01:40:35;;;;;;;0.60;0.50;;;23.30;68.60;;;;;;5031206;28;20068;-79
2023/07/09 01:43:02;;;;;;;0.50;0.50;;;23.20;68.50;;;;;;5035627;28;20037;-79
2023/07/09 01:45:27;;;;;;;0.40;0.40;;;23.20;68.50;;;;;;5034095;28;20041;-79
2023/07/09 01:47:55;;;;;;;0.50;0.50;;;23.20;68.50;;;;;;5015566;28;20057;-79
2023/07/09 01:50:21;;;;;;;0.50;0.50;;;23.20;68.50;;;;;;5015493;28;20125;-79
2023/07/09 01:52:46;;;;;;;0.38;0.30;;;23.20;68.60;;;;;;5043314;28;20045;-79
2023/07/09 01:55:13;;;;;;;0.45;0.45;;;23.20;68.50;;;;;;5018480;28;20522;-79
2023/07/09 01:57:40;;;;;;;0.35;0.35;;;23.20;68.50;;;;;;5038809;28;20128;-79
2023/07/09 02:00:11;;;;;;;0.40;0.40;;;23.30;68.50;;;;;;5048052;28;20081;-79
2023/07/09 02:02:38;;;;;;;0.70;0.70;;;23.30;68.50;;;;;;5015480;28;20522;-79
2023/07/09 02:05:04;;;;;;;0.40;0.40;;;23.20;68.40;;;;;;5017871;28;20141;-79
2023/07/09 02:07:30;;;;;;;0.60;0.60;;;23.20;68.50;;;;;;5031365;28;20518;-79
2023/07/09 02:09:55;;;;;;;0.47;0.47;;;23.20;68.40;;;;;;5054106;28;20098;-79
2023/07/09 02:12:21;;;;;;;0.60;0.60;;;23.20;68.40;;;;;;5031973;28;20426;-79
2023/07/09 02:14:47;;;;;;;0.40;0.40;;;23.20;68.40;;;;;;5027995;28;20041;-79
2023/07/09 02:17:13;;;;;;;0.52;0.52;;;23.20;68.50;;;;;;5063576;28;20045;-79
2023/07/09 02:19:38;;;;;;;0.30;0.30;;;23.20;68.40;;;;;;5028866;28;20089;-79
2023/07/09 02:22:04;;;;;;;0.40;0.40;;;23.20;68.40;;;;;;5049010;28;20445;-79
2023/07/09 02:24:30;;;;;;;0.40;0.40;;;23.20;68.40;;;;;;5028961;28;20041;-79
2023/07/09 02:26:56;;;;;;;0.30;0.30;;;23.20;69.20;;;;;;5027647;28;20041;-79
2023/07/09 02:29:22;;;;;;;0.50;0.50;;;23.20;68.40;;;;;;5042565;28;20050;-79
2023/07/09 02:31:49;;;;;;;0.63;0.40;;;23.20;68.40;;;;;;5031660;28;20175;-79
2023/07/09 02:34:14;;;;;;;0.50;0.50;;;23.20;68.40;;;;;;5029923;28;20129;-79
2023/07/09 02:36:42;;;;;;;0.40;0.40;;;23.20;68.40;;;;;;5056729;28;20532;-79
2023/07/09 02:39:09;;;;;;;0.50;0.50;;;23.20;68.40;;;;;;5050814;28;20040;-79
2023/07/09 02:41:35;;;;;;;0.60;0.47;;;23.20;68.40;;;;;;5028813;28;20376;-79
2023/07/09 02:44:00;;;;;;;0.40;0.40;;;23.20;68.40;;;;;;5039536;28;20156;-79
2023/07/09 02:46:26;;;;;;;0.40;0.40;;;23.20;68.40;;;;;;5042359;28;20407;-79
2023/07/09 02:48:51;;;;;;;0.40;0.40;;;23.20;68.40;;;;;;5027217;28;20064;-79
2023/07/09 02:51:17;;;;;;;1.20;0.50;;;23.20;68.50;;;;;;5050795;28;20040;-79
2023/07/09 02:53:42;;;;;;;0.50;0.38;;;23.20;68.40;;;;;;5069908;28;20132;-79
2023/07/09 02:56:08;;;;;;;0.40;0.40;;;23.20;68.40;;;;;;5069072;28;20041;-79
2023/07/09 02:58:33;;;;;;;0.93;0.60;;;23.20;68.40;;;;;;5036661;28;20521;-79
2023/07/09 03:00:59;;;;;;;0.30;0.30;;;23.20;68.50;;;;;;5068716;28;20115;-79
2023/07/09 03:03:24;;;;;;;0.22;0.22;;;23.20;68.60;;;;;;5041753;28;20040;-79
2023/07/09 03:05:50;;;;;;;0.22;0.22;;;23.20;68.50;;;;;;5049983;28;20056;-79
2023/07/09 03:08:16;;;;;;;0.47;0.47;;;23.20;68.40;;;;;;5037704;28;20045;-79
2023/07/09 03:10:41;;;;;;;0.40;0.40;;;23.20;68.40;;;;;;5055064;28;20045;-79
2023/07/09 03:13:07;;;;;;;0.30;0.30;;;23.20;68.60;;;;;;5057608;28;20074;-79
2023/07/09 03:15:32;;;;;;;0.43;0.43;;;23.20;68.40;;;;;;5028841;28;20526;-79
2023/07/09 03:17:58;;;;;;;0.40;0.40;;;23.20;68.50;;;;;;5027114;28;20041;-79
2023/07/09 03:20:25;;;;;;;0.30;0.25;;;23.20;68.40;;;;;;5035260;28;20120;-79
2023/07/09 03:22:50;;;;;;;0.45;0.28;;;23.20;68.50;;;;;;5055498;28;20037;-79
2023/07/09 03:25:16;;;;;;;0.60;0.50;;;23.20;68.60;;;;;;5054619;28;20060;-79
2023/07/09 03:27:41;;;;;;;0.30;0.30;;;23.20;68.60;;;;;;5040513;28;20056;-79
2023/07/09 03:30:07;;;;;;;0.50;0.50;;;23.20;68.60;;;;;;5052020;28;20044;-79
2023/07/09 03:32:33;;;;;;;0.30;0.30;;;23.20;68.70;;;;;;5052422;28;20183;-79
2023/07/09 03:34:58;;;;;;;0.30;0.30;;;23.20;68.60;;;;;;5039663;28;20394;-79
2023/07/09 03:37:24;;;;;;;0.30;0.30;;;23.20;68.70;;;;;;5056842;28;20075;-79
2023/07/09 03:39:49;;;;;;;0.30;0.30;;;23.20;69.30;;;;;;5066970;28;20051;-79
2023/07/09 03:42:15;;;;;;;0.30;0.30;;;23.20;68.70;;;;;;5049712;28;20118;-79
2023/07/09 03:44:40;;;;;;;0.40;0.40;;;23.20;69.40;;;;;;5051557;28;20044;-78
2023/07/09 03:47:06;;;;;;;0.30;0.30;;;23.20;69.50;;;;;;5038018;28;20041;-79
2023/07/09 03:49:32;;;;;;;0.32;0.30;;;23.10;69.40;;;;;;5038841;28;20041;-79
2023/07/09 03:51:58;;;;;;;0.30;0.30;;;23.20;69.60;;;;;;5053923;28;20048;-79
2023/07/09 03:54:23;;;;;;;0.28;0.28;;;23.20;69.60;;;;;;5036024;28;20506;-79
2023/07/09 03:56:49;;;;;;;0.30;0.30;;;23.20;69.50;;;;;;5054705;28;20048;-79
2023/07/09 03:59:14;;;;;;;0.32;0.25;;;23.10;69.10;;;;;;5066352;28;20040;-79
2023/07/09 04:01:45;;;;;;;0.40;0.40;;;23.20;69.30;;;;;;5038466;28;20527;-79
2023/07/09 04:04:14;;;;;;;0.45;0.45;;;23.20;69.40;;;;;;5053775;28;21321;-78
2023/07/09 04:06:40;;;;;;;0.45;0.45;;;23.20;69.40;;;;;;5053695;28;20098;-78
2023/07/09 04:09:05;;;;;;;0.32;0.32;;;23.20;69.50;;;;;;5036833;28;20044;-79
2023/07/09 04:11:31;;;;;;;0.35;0.35;;;23.20;69.20;;;;;;5038959;28;20059;-79
2023/07/09 04:13:56;;;;;;;0.35;0.35;;;23.20;69.30;;;;;;5048693;28;20051;-79
2023/07/09 04:16:23;;;;;;;0.40;0.40;;;23.20;69.60;;;;;;5034751;28;20418;-79
2023/07/09 04:18:49;;;;;;;0.22;0.22;;;23.20;69.70;;;;;;5033270;28;20095;-79
2023/07/09 04:21:14;;;;;;;0.30;0.30;;;23.20;69.60;;;;;;5036454;28;20045;-79
2023/07/09 04:23:40;;;;;;;0.40;0.40;;;23.20;69.50;;;;;;5054356;28;20040;-79
2023/07/09 04:26:09;;;;;;;0.40;0.40;;;23.20;69.60;;;;;;5035228;28;20065;-79
2023/07/09 04:28:34;;;;;;;0.95;0.70;;;23.20;69.50;;;;;;5011920;28;20050;-79
2023/07/09 04:31:00;;;;;;;0.50;0.50;;;23.20;69.20;;;;;;5048572;28;20710;-79
2023/07/09 04:33:25;;;;;;;0.40;0.40;;;23.20;69.50;;;;;;5033547;28;20049;-79
2023/07/09 04:35:51;;;;;;;0.40;0.40;;;23.20;69.40;;;;;;5032426;28;20866;-79
2023/07/09 04:38:16;;;;;;;0.30;0.30;;;23.10;69.50;;;;;;5018897;28;20087;-79
2023/07/09 04:40:42;;;;;;;0.60;0.40;;;23.10;69.50;;;;;;5044634;28;20052;-79
2023/07/09 04:43:08;;;;;;;0.38;0.30;;;23.20;69.40;;;;;;5044697;28;20044;-79
2023/07/09 04:45:33;;;;;;;0.40;0.40;;;23.20;69.40;;;;;;5016182;28;20132;-78
2023/07/09 04:47:59;;;;;;;0.20;0.20;;;23.20;69.40;;;;;;5048718;28;20491;-79
2023/07/09 04:50:24;;;;;;;0.43;0.30;;;23.20;69.60;;;;;;5029841;28;20433;-79
2023/07/09 04:52:52;;;;;;;0.40;0.40;;;23.10;69.40;;;;;;5062590;28;20045;-79
2023/07/09 04:55:18;;;;;;;0.40;0.40;;;23.20;70.20;;;;;;5055162;28;20049;-78
2023/07/09 04:57:44;;;;;;;0.50;0.50;;;23.10;69.30;;;;;;5035584;28;20120;-78
2023/07/09 05:00:11;;;;;;;0.40;0.40;;;23.20;69.40;;;;;;5036792;28;20128;-78
2023/07/09 05:02:36;;;;;;;0.43;0.40;;;23.20;69.20;;;;;;5050069;28;20033;-79
2023/07/09 05:05:02;;;;;;;0.45;0.45;;;23.10;68.90;;;;;;5049141;28;20041;-78
2023/07/09 05:07:28;;;;;;;0.47;0.38;;;23.20;69.00;;;;;;5069039;28;20581;-78
2023/07/09 05:09:53;;;;;;;0.32;0.32;;;23.20;69.00;;;;;;5006693;28;20114;-79
2023/07/09 05:12:20;;;;;;;0.50;0.50;;;23.20;68.90;;;;;;5052877;28;20556;-79
2023/07/09 05:14:46;;;;;;;0.25;0.25;;;23.20;68.90;;;;;;5051983;28;20102;-79
2023/07/09 05:17:11;;;;;;;0.77;0.30;;;23.10;69.70;;;;;;5034095;28;20048;-78
2023/07/09 05:19:38;;;;;;;0.40;0.40;;;23.20;69.00;;;;;;5069470;28;20052;-79
2023/07/09 05:22:04;;;;;;;0.40;0.40;;;23.20;69.10;;;;;;5053300;28;20494;-78
2023/07/09 05:24:29;;;;;;;0.30;0.30;;;23.20;69.40;;;;;;5062748;28;20074;-79
2023/07/09 05:26:55;;;;;;;0.30;0.30;;;23.10;69.30;;;;;;5038900;28;20062;-79
2023/07/09 05:29:21;;;;;;;0.32;0.30;;;23.20;69.30;;;;;;5057155;28;20029;-78
2023/07/09 05:31:46;;;;;;;0.73;0.57;;;23.10;69.20;;;;;;5014933;28;20117;-79
2023/07/09 05:34:12;;;;;;;0.38;0.30;;;23.20;69.20;;;;;;5053438;28;20095;-79
2023/07/09 05:36:38;;;;;;;0.63;0.22;;;23.10;69.00;;;;;;5042868;28;20388;-79
2023/07/09 05:39:04;;;;;;;0.55;0.40;;;23.20;69.10;;;;;;5029878;28;20065;-79
2023/07/09 05:41:29;;;;;;;0.43;0.32;;;23.10;69.00;;;;;;5036602;28;20463;-79
2023/07/09 05:43:55;;;;;;;0.20;0.20;;;23.20;69.00;;;;;;5064857;28;20383;-79
2023/07/09 05:46:22;;;;;;;0.40;0.40;;;23.20;69.20;;;;;;5053963;28;20052;-78
2023/07/09 05:48:48;;;;;;;0.47;0.40;;;23.10;69.50;;;;;;5047766;28;20037;-79
2023/07/09 05:51:13;;;;;;;0.30;0.30;;;23.10;69.60;;;;;;5034851;28;20106;-79
2023/07/09 05:53:39;;;;;;;0.90;0.40;;;23.10;69.50;;;;;;5045288;28;20051;-79
2023/07/09 05:56:05;;;;;;;0.35;0.30;;;23.10;69.30;;;;;;5010513;28;20102;-79
2023/07/09 05:58:30;;;;;;;0.38;0.38;;;23.10;69.30;;;;;;5026926;28;20147;-78
2023/07/09 06:00:57;;;;;;;0.40;0.40;;;23.10;69.30;;;;;;5043344;28;20040;-78
2023/07/09 06:03:24;;;;;;;0.38;0.38;;;23.10;69.00;;;;;;5029046;28;20041;-79
2023/07/09 06:05:50;;;;;;;0.30;0.30;;;23.10;69.00;;;;;;5030830;28;20072;-79
2023/07/09 06:08:16;;;;;;;0.38;0.35;;;23.20;68.90;;;;;;5015561;28;20131;-79
2023/07/09 06:11:01;;;;;;;0.30;0.30;;;23.20;68.80;;;;;;5035157;28;20037;-78
2023/07/09 06:13:30;;;;;;;0.20;0.20;;;23.20;69.70;;;;;;5050372;28;20044;-79
2023/07/09 06:15:56;;;;;;;0.30;0.30;;;23.20;68.90;;;;;;5016867;28;20053;-79
2023/07/09 06:18:22;;;;;;;0.28;0.28;;;23.20;69.00;;;;;;5040267;28;20423;-79
2023/07/09 06:20:53;;;;;;;0.30;0.30;;;23.20;69.10;;;;;;5012296;28;20465;-78
2023/07/09 06:23:19;;;;;;;0.35;0.30;;;23.20;69.10;;;;;;5030416;28;21505;-78
2023/07/09 06:25:47;;;;;;;0.40;0.40;;;23.20;69.00;;;;;;5047450;28;20041;-78
2023/07/09 06:28:18;;;;;;;0.20;0.20;;;23.20;69.00;;;;;;5031423;28;20036;-79
2023/07/09 06:30:44;;;;;;;0.20;0.20;;;23.10;68.90;;;;;;5044881;28;20046;-79
2023/07/09 06:33:10;;;;;;;0.30;0.30;;;23.10;68.90;;;;;;5031698;28;20122;-79
2023/07/09 06:35:36;;;;;;;0.20;0.20;;;23.10;69.00;;;;;;5021828;28;20041;-79
2023/07/09 06:38:01;;;;;;;0.28;0.20;;;23.10;68.90;;;;;;5015719;28;20789;-79
2023/07/09 06:40:28;;;;;;;0.50;0.40;;;23.10;68.90;;;;;;5041771;28;20045;-79
2023/07/09 06:42:54;;;;;;;0.52;0.40;;;23.20;69.00;;;;;;5035446;28;20041;-79
2023/07/09 06:45:19;;;;;;;0.15;0.15;;;23.20;68.90;;;;;;5040569;28;20131;-79
2023/07/09 06:47:45;;;;;;;0.20;0.20;;;23.20;68.90;;;;;;5039408;28;20394;-79
2023/07/09 06:50:11;;;;;;;0.32;0.32;;;23.10;68.90;;;;;;5028324;28;20045;-78
2023/07/09 06:52:37;;;;;;;0.30;0.30;;;23.20;68.80;;;;;;5031395;28;20037;-79
2023/07/09 06:55:03;;;;;;;0.30;0.25;;;23.20;68.90;;;;;;5034707;28;20527;-79
2023/07/09 06:57:28;;;;;;;0.30;0.28;;;23.20;69.30;;;;;;5031616;28;20041;-79
2023/07/09 06:59:54;;;;;;;0.40;0.28;;;23.20;68.80;;;;;;5028430;28;20043;-79
2023/07/09 07:02:20;;;;;;;0.20;0.20;;;23.20;68.80;;;;;;5032027;28;20093;-79
2023/07/09 07:04:45;;;;;;;0.38;0.38;;;23.20;68.70;;;;;;5032035;28;20196;-79
2023/07/09 07:07:11;;;;;;;0.40;0.40;;;23.20;68.70;;;;;;5049619;28;20048;-79
2023/07/09 07:09:37;;;;;;;0.30;0.30;;;23.20;68.80;;;;;;5003530;28;20041;-79
2023/07/09 07:12:02;;;;;;;0.30;0.30;;;23.20;68.70;;;;;;5036828;28;20041;-79
2023/07/09 07:14:28;;;;;;;0.20;0.20;;;23.20;68.80;;;;;;5042941;28;20123;-78
2023/07/09 07:16:55;;;;;;;0.20;0.20;;;23.20;68.80;;;;;;5030816;28;20252;-79
2023/07/09 07:19:21;;;;;;;0.68;0.50;;;23.20;68.80;;;;;;5068940;28;20067;-79
2023/07/09 07:21:46;;;;;;;0.20;0.20;;;23.20;68.70;;;;;;5041532;28;20160;-78
2023/07/09 07:24:12;;;;;;;0.30;0.30;;;23.20;68.80;;;;;;5031463;28;20051;-78
2023/07/09 07:26:37;;;;;;;0.20;0.20;;;23.20;68.70;;;;;;5035341;28;20034;-79
2023/07/09 07:29:03;;;;;;;0.52;0.50;;;23.20;68.70;;;;;;5024988;28;20037;-78
2023/07/09 07:31:29;;;;;;;0.30;0.17;;;23.20;68.70;;;;;;5043183;28;20037;-79
2023/07/09 07:33:54;;;;;;;0.73;0.45;;;23.10;68.80;;;;;;5036585;28;20163;-78
2023/07/09 07:36:20;;;;;;;0.65;0.40;;;23.10;68.70;;;;;;5033548;28;20044;-79
2023/07/09 07:38:46;;;;;;;0.20;0.20;;;23.20;68.70;;;;;;5034074;28;20221;-78
2023/07/09 07:41:11;;;;;;;0.20;0.20;;;23.20;68.80;;;;;;5033033;28;20048;-79
2023/07/09 07:43:37;;;;;;;0.47;0.40;;;23.20;68.80;;;;;;5036179;28;20053;-79
2023/07/09 07:46:02;;;;;;;0.30;0.30;;;23.20;68.80;;;;;;5037194;28;20046;-79
2023/07/09 07:48:28;;;;;;;0.30;0.25;;;23.20;68.80;;;;;;5027085;28;20384;-79
2023/07/09 07:51:03;;;;;;;0.32;0.28;;;23.20;68.90;;;;;;5020309;28;20384;-79
2023/07/09 07:53:31;;;;;;;0.20;0.20;;;23.20;68.80;;;;;;5019191;28;20117;-79
2023/07/09 07:55:57;;;;;;;0.30;0.30;;;23.10;68.50;;;;;;5021299;28;20053;-79
2023/07/09 07:58:23;;;;;;;0.20;0.20;;;23.20;68.50;;;;;;5037958;28;20621;-79
2023/07/09 08:00:48;;;;;;;0.40;0.40;;;23.10;68.40;;;;;;5065028;28;20042;-78
2023/07/09 08:03:14;;;;;;;0.30;0.30;;;23.20;68.50;;;;;;5048895;28;20490;-79
2023/07/09 08:05:39;;;;;;;0.30;0.20;;;23.20;68.50;;;;;;5050567;28;20041;-79
2023/07/09 08:08:05;;;;;;;0.20;0.20;;;23.20;68.60;;;;;;5066095;28;20048;-78
2023/07/09 08:10:31;;;;;;;0.25;0.22;;;23.20;68.60;;;;;;5049366;28;20042;-79
2023/07/09 08:12:57;;;;;;;0.20;0.20;;;23.20;68.60;;;;;;5045502;28;20574;-79
2023/07/09 08:15:25;;;;;;;0.30;0.30;;;23.20;68.70;;;;;;5043544;28;20118;-79
2023/07/09 08:17:51;;;;;;;0.30;0.30;;;23.20;68.70;;;;;;5028041;28;21142;-79
2023/07/09 08:20:17;;;;;;;0.20;0.20;;;23.10;68.80;;;;;;5049458;28;20052;-79
2023/07/09 08:22:43;;;;;;;0.20;0.20;;;23.20;69.00;;;;;;5032320;28;20053;-79
2023/07/09 08:25:08;;;;;;;0.20;0.20;;;23.20;69.00;;;;;;5032710;28;20051;-79
2023/07/09 08:27:34;;;;;;;0.30;0.28;;;23.20;69.00;;;;;;5032904;28;20050;-79
2023/07/09 08:30:00;;;;;;;0.20;0.20;;;23.20;69.10;;;;;;5031790;28;20045;-79
2023/07/09 08:32:25;;;;;;;0.57;0.30;;;23.20;70.00;;;;;;5044520;28;20049;-79
2023/07/09 08:34:51;;;;;;;0.30;0.30;;;23.20;69.40;;;;;;5029799;28;20030;-79
2023/07/09 08:37:16;;;;;;;0.20;0.20;;;23.20;69.30;;;;;;5034566;28;20046;-79
2023/07/09 08:39:42;;;;;;;0.17;0.17;;;23.20;69.10;;;;;;5036551;28;20075;-79
2023/07/09 08:42:10;;;;;;;0.30;0.20;;;23.20;69.20;;;;;;5063980;28;20029;-79
2023/07/09 08:45:23;;;;;;;0.32;0.20;;;23.20;69.40;;;;;;5032502;28;20418;-79
2023/07/09 08:47:56;;;;;;;0.28;0.20;;;23.20;69.40;;;;;;5030864;28;20634;-79
2023/07/09 08:50:24;;;;;;;0.50;0.33;;;23.20;69.80;;;;;;5013447;28;20121;-79
2023/07/09 08:52:50;;;;;;;0.30;0.30;;;23.20;69.70;;;;;;5025678;28;20045;-79
2023/07/09 08:55:20;;;;;;;0.30;0.30;;;23.10;69.40;;;;;;5031815;28;20114;-78
2023/07/09 08:57:50;;;;;;;0.20;0.20;;;23.20;69.70;;;;;;5051383;28;20211;-79
2023/07/09 09:00:41;;;;;;;0.32;0.30;;;23.20;69.40;;;;;;5047692;28;20045;-79
2023/07/09 09:03:35;;;;;;;0.30;0.30;;;23.20;69.20;;;;;;5045126;28;20046;-79
2023/07/09 09:06:01;;;;;;;0.57;0.40;;;23.20;69.20;;;;;;5031279;28;20033;-79
2023/07/09 09:08:37;;;;;;;0.32;0.32;;;23.20;69.30;;;;;;5046621;28;20576;-79
2023/07/09 09:11:48;;;;;;;0.30;0.30;;;23.20;69.30;;;;;;5032419;28;20050;-79
2023/07/09 09:14:33;;;;;;;0.43;0.28;;;23.10;69.30;;;;;;5003748;28;20198;-79
2023/07/09 09:16:59;;;;;;;0.30;0.25;;;23.20;69.40;;;;;;5014841;28;20073;-79
2023/07/09 09:19:36;;;;;;;0.30;0.30;;;23.20;69.20;;;;;;5028860;28;20065;-79
2023/07/09 09:22:04;;;;;;;0.30;0.30;;;23.20;69.30;;;;;;5031509;28;20111;-79
2023/07/09 09:24:37;;;;;;;0.30;0.30;;;23.20;69.10;;;;;;5016495;28;20041;-79
2023/07/09 09:27:02;;;;;;;0.30;0.30;;;23.20;69.00;;;;;;5028758;28;20119;-79
2023/07/09 09:29:28;;;;;;;0.20;0.20;;;23.20;69.20;;;;;;5017665;28;20121;-79
2023/07/09 09:31:55;;;;;;;0.43;0.20;;;23.20;68.90;;;;;;5045095;28;20044;-79
2023/07/09 09:34:24;;;;;;;0.40;0.25;;;23.20;68.80;;;;;;5017447;28;20115;-79
2023/07/09 09:36:49;;;;;;;0.40;0.40;;;23.20;68.50;;;;;;5005500;28;20889;-79
2023/07/09 09:39:16;;;;;;;0.28;0.28;;;23.20;68.60;;;;;;5036193;28;20411;-79
2023/07/09 09:41:43;;;;;;;0.20;0.20;;;23.20;68.40;;;;;;5022318;28;20033;-79
2023/07/09 09:44:17;;;;;;;0.20;0.20;;;23.20;68.40;;;;;;5045049;28;20094;-79
2023/07/09 09:46:43;;;;;;;0.45;0.35;;;23.20;68.70;;;;;;5045325;28;20040;-79
2023/07/09 09:49:09;;;;;;;0.40;0.30;;;23.20;68.70;;;;;;5033344;28;20043;-79
2023/07/09 09:51:34;;;;;;;0.70;0.30;;;23.20;68.80;;;;;;5045411;28;21083;-79
2023/07/09 09:54:01;;;;;;;0.15;0.10;;;23.20;68.80;;;;;;5047538;28;20032;-79
2023/07/09 09:56:26;;;;;;;0.20;0.20;;;23.20;69.00;;;;;;5052632;28;20086;-79
2023/07/09 09:58:54;;;;;;;0.20;0.20;;;23.20;69.10;;;;;;5034495;28;20032;-79
2023/07/09 10:01:19;;;;;;;0.20;0.20;;;23.20;69.00;;;;;;5046331;28;20045;-79
2023/07/09 10:03:47;;;;;;;0.52;0.30;;;23.20;68.90;;;;;;5029815;28;20049;-79
2023/07/09 10:06:20;;;;;;;0.25;0.22;;;23.30;68.70;;;;;;5025076;28;20553;-79
2023/07/09 10:08:57;;;;;;;0.53;0.30;;;23.20;68.50;;;;;;5018810;28;20044;-79
2023/07/09 10:11:36;;;;;;;0.40;0.30;;;23.20;68.40;;;;;;5005900;28;20045;-79
2023/07/09 10:14:08;;;;;;;0.43;0.30;;;23.30;68.40;;;;;;5046423;28;20108;-79
2023/07/09 10:16:41;;;;;;;0.30;0.22;;;23.20;68.30;;;;;;5025899;28;20077;-79
2023/07/09 10:19:23;;;;;;;0.22;0.20;;;23.30;68.30;;;;;;5047026;28;20037;-78
2023/07/09 10:21:57;;;;;;;0.40;0.40;;;23.20;68.30;;;;;;5069605;28;20049;-78
2023/07/09 10:24:43;;;;;;;0.20;0.20;;;23.30;68.30;;;;;;5043605;28;20068;-79
2023/07/09 10:27:40;;;;;;;0.30;0.30;;;23.30;68.50;;;;;;5027793;28;20041;-79
2023/07/09 10:30:41;;;;;;;0.30;0.30;;;23.20;68.40;;;;;;5036869;28;20417;-79
2023/07/09 10:33:11;;;;;;;0.30;0.30;;;23.20;68.40;;;;;;5055036;28;20118;-79
2023/07/09 10:35:49;;;;;;;0.30;0.30;;;23.20;68.40;;;;;;5020921;28;20045;-79
2023/07/09 10:38:42;;;;;;;0.63;0.40;;;23.20;68.60;;;;;;5049867;28;20044;-79
2023/07/09 10:41:10;;;;;;;0.40;0.40;;;23.30;68.60;;;;;;5021679;28;20061;-79
2023/07/09 10:43:48;;;;;;;0.30;0.30;;;23.20;68.40;;;;;;5034165;28;20156;-79
2023/07/09 10:46:22;;;;;;;0.20;0.20;;;23.30;68.50;;;;;;5047702;28;20045;-79
2023/07/09 10:48:50;;;;;;;0.40;0.40;;;23.20;68.40;;;;;;5038272;28;20583;-79
2023/07/09 10:51:40;;;;;;;0.20;0.20;;;23.20;68.40;;;;;;5032430;28;20041;-79
2023/07/09 10:54:23;;;;;;;0.20;0.20;;;23.20;68.40;;;;;;5048140;28;20516;-79
2023/07/09 10:56:51;;;;;;;0.35;0.30;;;23.20;68.60;;;;;;5049275;28;20105;-79
2023/07/09 10:59:31;;;;;;;0.20;0.20;;;23.30;68.40;;;;;;5052062;28;20140;-79
2023/07/09 11:02:18;;;;;;;0.30;0.30;;;23.20;68.50;;;;;;5023726;28;20029;-79
2023/07/09 11:04:55;;;;;;;0.17;0.17;;;23.20;68.40;;;;;;5054477;28;20029;-79
2023/07/09 11:07:31;;;;;;;0.20;0.20;;;23.30;68.40;;;;;;5053710;28;20076;-79
2023/07/09 11:09:58;;;;;;;0.22;0.22;;;23.30;68.30;;;;;;5037901;28;20049;-79
2023/07/09 11:12:28;;;;;;;0.20;0.20;;;23.30;68.30;;;;;;5053191;28;20040;-79
2023/07/09 11:15:10;;;;;;;0.40;0.30;;;23.30;68.30;;;;;;5054503;28;20045;-79
2023/07/09 11:17:37;;;;;;;0.30;0.30;;;23.30;68.30;;;;;;5033587;28;20175;-79
2023/07/09 11:20:08;;;;;;;0.20;0.20;;;23.30;68.60;;;;;;5055298;28;20037;-79
2023/07/09 11:22:39;;;;;;;0.32;0.30;;;23.30;68.50;;;;;;5024141;28;20038;-79
2023/07/09 11:25:06;;;;;;;0.73;0.57;;;23.30;68.30;;;;;;5054134;28;20045;-79
2023/07/09 11:27:31;;;;;;;0.50;0.30;;;23.30;68.40;;;;;;5056009;28;20055;-79
2023/07/09 11:29:59;;;;;;;0.30;0.30;;;23.30;68.30;;;;;;5039718;28;20089;-78
2023/07/09 11:32:24;;;;;;;0.20;0.20;;;23.30;68.30;;;;;;5049181;28;20045;-78
2023/07/09 11:34:50;;;;;;;0.30;0.20;;;23.30;68.30;;;;;;5054708;28;20563;-78
2023/07/09 11:37:16;;;;;;;0.28;0.28;;;23.30;68.30;;;;;;5039726;28;20040;-78
2023/07/09 11:39:46;;;;;;;0.40;0.30;;;23.30;68.30;;;;;;5022446;28;20044;-78
2023/07/09 11:42:29;;;;;;;0.40;0.30;;;23.30;68.30;;;;;;5035218;28;20048;-78
2023/07/09 11:45:16;;;;;;;0.25;0.25;;;23.30;68.40;;;;;;5033500;28;20134;-78
2023/07/09 11:47:51;;;;;;;0.30;0.30;;;23.30;68.50;;;;;;5036143;28;20040;-78
2023/07/09 11:50:27;;;;;;;0.68;0.40;;;23.30;68.40;;;;;;5022001;28;20028;-78
2023/07/09 11:53:16;;;;;;;0.30;0.30;;;23.30;68.30;;;;;;5052985;28;20034;-78
2023/07/09 11:55:43;;;;;;;0.30;0.30;;;23.30;68.30;;;;;;5046031;28;20033;-78
2023/07/09 11:58:14;;;;;;;0.40;0.30;;;23.30;68.30;;;;;;5001821;28;20028;-78
2023/07/09 12:00:42;;;;;;;0.20;0.20;;;23.30;68.30;;;;;;5045068;28;20037;-78
2023/07/09 12:03:40;;;;;;;0.30;0.20;;;23.30;68.20;;;;;;5052021;28;20037;-78
2023/07/09 12:06:23;;;;;;;0.25;0.25;;;23.30;68.30;;;;;;5009221;28;20459;-78
2023/07/09 12:08:48;;;;;;;0.45;0.45;;;23.30;68.20;;;;;;5021260;28;20127;-78
2023/07/09 12:11:22;;;;;;;0.20;0.20;;;23.30;68.30;;;;;;5019988;28;20151;-78
2023/07/09 12:13:48;;;;;;;0.43;0.40;;;23.30;68.30;;;;;;5029968;28;20037;-78
2023/07/09 12:16:21;;;;;;;0.30;0.30;;;23.30;68.30;;;;;;5049895;28;20144;-78
2023/07/09 12:18:47;;;;;;;1.45;0.85;;;23.30;68.30;;;;;;5020758;28;20487;-78
2023/07/09 12:21:12;;;;;;;0.40;0.40;;;23.30;68.20;;;;;;5046378;28;20049;-78
2023/07/09 12:23:39;;;;;;;0.43;0.43;;;23.30;68.20;;;;;;5031182;28;20530;-78
2023/07/09 12:26:06;;;;;;;0.30;0.30;;;23.30;68.20;;;;;;5032934;28;20576;-78
2023/07/09 12:28:31;;;;;;;0.30;0.30;;;23.40;68.20;;;;;;5029752;28;20046;-78
2023/07/09 12:30:57;;;;;;;0.25;0.20;;;23.40;68.20;;;;;;5019773;28;20111;-78
2023/07/09 12:33:24;;;;;;;0.20;0.20;;;23.40;68.10;;;;;;5030320;28;20037;-78
2023/07/09 12:36:00;;;;;;;0.30;0.30;;;23.40;68.10;;;;;;5016557;28;20119;-78
2023/07/09 12:38:30;;;;;;;0.30;0.30;;;23.40;68.10;;;;;;5013329;28;20517;-78
2023/07/09 12:40:55;;;;;;;0.40;0.28;;;23.40;68.10;;;;;;5036105;28;20091;-79
2023/07/09 12:43:28;;;;;;;0.20;0.20;;;23.40;68.10;;;;;;5031825;28;20041;-78
2023/07/09 12:45:54;;;;;;;0.40;0.40;;;23.40;68.00;;;;;;5017365;28;20430;-79
2023/07/09 12:48:24;;;;;;;0.20;0.20;;;23.40;68.00;;;;;;5023350;28;20045;-78
2023/07/09 12:50:50;;;;;;;0.40;0.40;;;23.40;68.00;;;;;;5030286;28;20053;-78
2023/07/09 12:53:22;;;;;;;0.30;0.30;;;23.40;68.00;;;;;;5040091;28;20043;-79
2023/07/09 12:55:50;;;;;;;0.22;0.22;;;23.40;68.00;;;;;;5026703;28;20529;-78